Time;durP1;ratioP1;P1;durP2;ratioP2;P2;SDS_P1;SDS_P2;PMS_P1;PMS_P2;Temp;Humidity;BMP_temperature;BMP_pressure;BME280_temperature;BME280_humidity;BME280_pressure;Samples;Min_cycle;Max_cycle;Signal;HPM_P1;HPM_P2
2023/08/13 00:01:58;;;;;;;;;;;13.80;99.90;;;;;;5055878;28;19915;-57
2023/08/13 00:04:23;;;;;;;;;;;13.80;99.90;;;;;;5056586;28;20416;-57
2023/08/13 00:06:49;;;;;;;;;;;13.70;99.90;;;;;;5056730;28;19912;-57
2023/08/13 00:09:15;;;;;;;;;;;13.70;99.90;;;;;;5056793;28;19928;-57
2023/08/13 00:11:40;;;;;;;;;;;13.70;99.90;;;;;;5066097;28;20361;-57
2023/08/13 00:14:06;;;;;;;;;;;13.70;99.90;;;;;;5076526;28;19961;-57
2023/08/13 00:16:32;;;;;;;;;;;13.70;99.90;;;;;;5076385;28;19962;-57
2023/08/13 00:18:58;;;;;;;;;;;13.60;99.90;;;;;;5076357;28;19962;-57
2023/08/13 00:21:24;;;;;;;;;;;13.60;99.90;;;;;;5076334;28;19920;-57
2023/08/13 00:23:50;;;;;;;;;;;13.60;99.90;;;;;;5076090;28;19977;-57
2023/08/13 00:26:16;;;;;;;;;;;13.70;99.90;;;;;;5076176;28;19962;-57
2023/08/13 00:28:41;;;;;;;;;;;13.60;99.90;;;;;;5076274;28;19908;-57
2023/08/13 00:31:07;;;;;;;;;;;13.60;99.90;;;;;;5074773;28;19951;-57
2023/08/13 00:33:33;;;;;;;;;;;13.60;99.90;;;;;;5076039;28;19908;-57
2023/08/13 00:35:59;;;;;;;;;;;13.60;99.90;;;;;;5076166;28;19928;-57
2023/08/13 00:38:24;;;;;;;;;;;13.60;99.90;;;;;;5075742;28;19915;-57
2023/08/13 00:40:50;;;;;;;;;;;13.50;99.90;;;;;;5076033;28;19958;-57
2023/08/13 00:43:16;;;;;;;;;;;13.50;99.90;;;;;;5058363;28;20302;-57
2023/08/13 00:45:42;;;;;;;;;;;13.50;99.90;;;;;;5055776;28;19912;-57
2023/08/13 00:48:09;;;;;;;;;;;13.50;99.90;;;;;;5056036;28;19915;-57
2023/08/13 00:50:36;;;;;;;;;;;13.50;99.90;;;;;;5055784;28;19908;-57
2023/08/13 00:53:03;;;;;;;;;;;13.50;99.90;;;;;;5054457;28;19943;-57
2023/08/13 00:55:29;;;;;;;;;;;13.40;99.90;;;;;;5055822;28;19909;-57
2023/08/13 00:57:55;;;;;;;;;;;13.40;99.90;;;;;;5055760;28;19954;-57
2023/08/13 01:00:21;;;;;;;;;;;13.40;99.90;;;;;;5054273;28;19952;-57
2023/08/13 01:02:47;;;;;;;;;;;13.30;99.90;;;;;;5055586;28;19955;-57
2023/08/13 01:05:13;;;;;;;;;;;13.20;99.90;;;;;;5054349;28;19990;-57
2023/08/13 01:07:59;;;;;;;;;;;13.20;99.90;;;;;;5055526;28;19917;-57
2023/08/13 01:10:33;;;;;;;;;;;13.20;99.90;;;;;;5054273;28;19909;-57
2023/08/13 01:13:17;;;;;;;;;;;13.10;99.90;;;;;;5035164;28;20305;-57
2023/08/13 01:15:44;;;;;;;;;;;13.10;99.90;;;;;;5035216;28;19959;-57
2023/08/13 01:18:10;;;;;;;;;;;13.00;99.90;;;;;;5035445;28;20015;-57
2023/08/13 01:20:37;;;;;;;;;;;13.10;99.90;;;;;;5035246;28;19959;-57
2023/08/13 01:23:03;;;;;;;;;;;13.00;99.90;;;;;;5033980;28;19920;-57
2023/08/13 01:25:29;;;;;;;;;;;13.00;99.90;;;;;;5035284;28;19913;-57
2023/08/13 01:28:03;;;;;;;;;;;12.90;99.90;;;;;;5034057;28;20358;-57
2023/08/13 01:30:33;;;;;;;;;;;12.90;99.90;;;;;;5035224;28;19909;-57
2023/08/13 01:33:02;;;;;;;;;;;12.90;99.90;;;;;;5033934;28;19920;-57
2023/08/13 01:35:29;;;;;;;;;;;12.80;99.90;;;;;;5035261;28;19908;-57
2023/08/13 01:37:58;;;;;;;;;;;12.80;99.90;;;;;;5035090;28;19913;-57
2023/08/13 01:40:23;;;;;;;;;;;12.80;99.90;;;;;;5035255;28;19913;-57
2023/08/13 01:42:49;;;;;;;;;;;12.80;99.90;;;;;;5048886;28;19935;-57
2023/08/13 01:45:15;;;;;;;;;;;12.90;99.90;;;;;;5055067;28;20308;-57
2023/08/13 01:47:41;;;;;;;;;;;12.80;99.90;;;;;;5055270;28;19923;-57
2023/08/13 01:50:06;;;;;;;;;;;12.80;99.90;;;;;;5053512;28;19908;-57
2023/08/13 01:52:32;;;;;;;;;;;12.80;99.90;;;;;;5053615;28;20003;-57
2023/08/13 01:54:58;;;;;;;;;;;12.80;99.90;;;;;;5054946;28;19944;-57
2023/08/13 01:57:24;;;;;;;;;;;12.80;99.90;;;;;;5054706;28;19950;-57
2023/08/13 01:59:49;;;;;;;;;;;12.70;99.90;;;;;;5053591;28;19912;-57
2023/08/13 02:02:15;;;;;;;;;;;12.70;99.90;;;;;;5053391;28;20404;-57
2023/08/13 02:04:41;;;;;;;;;;;12.60;99.90;;;;;;5054723;28;19909;-57
2023/08/13 02:07:07;;;;;;;;;;;12.60;99.90;;;;;;5053355;28;19909;-57
2023/08/13 02:09:33;;;;;;;;;;;12.60;99.90;;;;;;5053410;28;19908;-57
2023/08/13 02:11:59;;;;;;;;;;;12.60;99.90;;;;;;5066753;28;19912;-57
2023/08/13 02:14:25;;;;;;;;;;;12.60;99.90;;;;;;5074546;28;19912;-57
2023/08/13 02:16:52;;;;;;;;;;;12.60;99.90;;;;;;5073449;28;19999;-57
2023/08/13 02:19:17;;;;;;;;;;;12.50;99.90;;;;;;5073417;28;19912;-57
2023/08/13 02:21:43;;;;;;;;;;;12.50;99.90;;;;;;5073286;28;19917;-57
2023/08/13 02:24:10;;;;;;;;;;;12.50;99.90;;;;;;5076523;28;19945;-57
2023/08/13 02:26:37;;;;;;;;;;;12.50;99.90;;;;;;5077175;28;19935;-57
2023/08/13 02:29:03;;;;;;;;;;;12.60;99.90;;;;;;5077415;28;20319;-57
2023/08/13 02:31:29;;;;;;;;;;;12.60;99.90;;;;;;5077298;28;20009;-57
2023/08/13 02:33:54;;;;;;;;;;;12.60;99.90;;;;;;5078374;28;19954;-57
2023/08/13 02:36:20;;;;;;;;;;;12.50;99.90;;;;;;5078522;28;19918;-57
2023/08/13 02:38:46;;;;;;;;;;;12.50;99.90;;;;;;5078421;28;19999;-57
2023/08/13 02:41:12;;;;;;;;;;;12.50;99.90;;;;;;5077554;28;19962;-57
2023/08/13 02:43:52;;;;;;;;;;;12.40;99.90;;;;;;5058295;28;19916;-57
2023/08/13 02:46:18;;;;;;;;;;;12.40;99.90;;;;;;5057000;28;19954;-57
2023/08/13 02:48:45;;;;;;;;;;;12.40;99.90;;;;;;5058021;28;20271;-57
2023/08/13 02:51:12;;;;;;;;;;;12.30;99.90;;;;;;5058214;28;19913;-57
2023/08/13 02:53:37;;;;;;;;;;;12.30;99.90;;;;;;5056754;28;19909;-57
2023/08/13 02:56:03;;;;;;;;;;;12.40;99.90;;;;;;5056825;28;19919;-57
2023/08/13 02:58:29;;;;;;;;;;;12.40;99.90;;;;;;5056804;28;19916;-57
2023/08/13 03:00:55;;;;;;;;;;;12.40;99.90;;;;;;5056565;28;20477;-57
2023/08/13 03:03:21;;;;;;;;;;;12.30;99.90;;;;;;5056464;28;19928;-57
2023/08/13 03:05:46;;;;;;;;;;;12.30;99.90;;;;;;5056565;28;19916;-57
2023/08/13 03:08:12;;;;;;;;;;;12.30;99.90;;;;;;5057827;28;19919;-57
2023/08/13 03:10:38;;;;;;;;;;;12.30;99.90;;;;;;5058816;28;20435;-57
2023/08/13 03:13:04;;;;;;;;;;;12.30;99.90;;;;;;5076378;28;19936;-57
2023/08/13 03:15:29;;;;;;;;;;;12.30;99.90;;;;;;5076209;28;19926;-57
2023/08/13 03:17:55;;;;;;;;;;;12.30;99.90;;;;;;5076236;28;20016;-57
2023/08/13 03:20:23;;;;;;;;;;;12.30;99.90;;;;;;5076165;28;20285;-57
2023/08/13 03:22:49;;;;;;;;;;;12.30;99.90;;;;;;5076272;28;19919;-57
2023/08/13 03:25:15;;;;;;;;;;;12.20;99.90;;;;;;5077480;28;19909;-57
2023/08/13 03:27:41;;;;;;;;;;;12.30;99.90;;;;;;5076190;28;19916;-57
2023/08/13 03:30:12;;;;;;;;;;;12.30;99.90;;;;;;5076158;28;19905;-57
2023/08/13 03:32:38;;;;;;;;;;;12.30;99.90;;;;;;5076064;28;19978;-57
2023/08/13 03:35:04;;;;;;;;;;;12.30;99.90;;;;;;5074739;28;19905;-57
2023/08/13 03:37:30;;;;;;;;;;;12.30;99.90;;;;;;5077107;28;19923;-57
2023/08/13 03:39:56;;;;;;;;;;;12.20;99.90;;;;;;5077351;28;20362;-57
2023/08/13 03:42:23;;;;;;;;;;;12.20;99.90;;;;;;5065416;28;19908;-57
2023/08/13 03:44:50;;;;;;;;;;;12.20;99.90;;;;;;5055696;28;19917;-57
2023/08/13 03:47:16;;;;;;;;;;;12.10;99.90;;;;;;5057199;28;20274;-57
2023/08/13 03:49:41;;;;;;;;;;;12.10;99.90;;;;;;5056856;28;19908;-57
2023/08/13 03:52:09;;;;;;;;;;;12.10;99.90;;;;;;5055621;28;19911;-57
2023/08/13 03:54:35;;;;;;;;;;;12.20;99.90;;;;;;5055761;28;19909;-57
2023/08/13 03:57:01;;;;;;;;;;;12.10;99.90;;;;;;5055623;28;19934;-57
2023/08/13 03:59:28;;;;;;;;;;;12.10;99.90;;;;;;5055491;28;19952;-57
2023/08/13 04:01:53;;;;;;;;;;;12.10;99.90;;;;;;5056767;28;19908;-57
2023/08/13 04:04:19;;;;;;;;;;;12.10;99.90;;;;;;5056678;28;20381;-57
2023/08/13 04:06:45;;;;;;;;;;;12.10;99.90;;;;;;5056653;28;19909;-57
2023/08/13 04:09:11;;;;;;;;;;;12.10;99.90;;;;;;5055378;28;20011;-57
2023/08/13 04:11:37;;;;;;;;;;;12.20;99.90;;;;;;5064414;28;20373;-57
2023/08/13 04:14:02;;;;;;;;;;;12.20;99.90;;;;;;5076702;28;20273;-57
2023/08/13 04:16:28;;;;;;;;;;;12.30;99.90;;;;;;5075354;28;20407;-57
2023/08/13 04:18:54;;;;;;;;;;;12.30;99.90;;;;;;5076540;28;19991;-57
2023/08/13 04:21:23;;;;;;;;;;;12.30;99.90;;;;;;5074864;28;19924;-57
2023/08/13 04:23:49;;;;;;;;;;;12.30;99.90;;;;;;5076677;28;19919;-57
2023/08/13 04:26:15;;;;;;;;;;;12.30;99.90;;;;;;5074880;28;19908;-57
2023/08/13 04:28:41;;;;;;;;;;;12.30;99.90;;;;;;5076157;28;19912;-57
2023/08/13 04:31:07;;;;;;;;;;;12.30;99.90;;;;;;5075141;28;19908;-57
2023/08/13 04:33:35;;;;;;;;;;;12.40;99.90;;;;;;5074880;28;19915;-57
2023/08/13 04:36:01;;;;;;;;;;;12.40;99.90;;;;;;5076033;28;20281;-57
2023/08/13 04:38:28;;;;;;;;;;;12.50;99.90;;;;;;5074640;28;19909;-57
2023/08/13 04:40:57;;;;;;;;;;;12.60;99.90;;;;;;5074785;28;19913;-57
2023/08/13 04:43:23;;;;;;;;;;;12.70;99.90;;;;;;5055846;28;19912;-57
2023/08/13 04:45:49;;;;;;;;;;;12.70;99.90;;;;;;5054516;28;19962;-57
2023/08/13 04:48:16;;;;;;;;;;;12.70;99.90;;;;;;5054338;28;19911;-57
2023/08/13 04:50:42;;;;;;;;;;;12.80;99.90;;;;;;5054546;28;19958;-57
2023/08/13 04:53:08;;;;;;;;;;;12.90;99.90;;;;;;5054541;28;20435;-57
2023/08/13 04:55:34;;;;;;;;;;;13.00;99.90;;;;;;5054601;28;19950;-57
2023/08/13 04:58:00;;;;;;;;;;;13.10;99.90;;;;;;5054346;28;19912;-57
2023/08/13 05:00:26;;;;;;;;;;;13.10;99.90;;;;;;5054350;28;19966;-57
2023/08/13 05:02:52;;;;;;;;;;;13.10;99.90;;;;;;5055471;28;19912;-57
2023/08/13 05:05:18;;;;;;;;;;;13.20;99.90;;;;;;5054400;28;19912;-57
2023/08/13 05:07:44;;;;;;;;;;;13.20;99.90;;;;;;5054301;28;19962;-57
2023/08/13 05:10:10;;;;;;;;;;;13.40;99.90;;;;;;5055767;28;19947;-57
2023/08/13 05:12:36;;;;;;;;;;;13.70;99.90;;;;;;5072599;28;20354;-57
2023/08/13 05:15:03;;;;;;;;;;;13.80;99.90;;;;;;5075381;28;20318;-57
2023/08/13 05:17:29;;;;;;;;;;;13.90;99.90;;;;;;5074076;28;19915;-57
2023/08/13 05:19:55;;;;;;;;;;;14.00;99.90;;;;;;5075277;28;19916;-57
2023/08/13 05:22:21;;;;;;;;;;;14.10;99.90;;;;;;5074155;28;19916;-57
2023/08/13 05:24:47;;;;;;;;;;;14.10;99.90;;;;;;5073831;28;19920;-57
2023/08/13 05:27:14;;;;;;;;;;;14.20;99.90;;;;;;5074072;28;19924;-57
2023/08/13 05:29:40;;;;;;;;;;;14.30;99.90;;;;;;5073936;28;19916;-57
2023/08/13 05:32:06;;;;;;;;;;;14.50;99.90;;;;;;5073833;28;19908;-57
2023/08/13 05:34:32;;;;;;;;;;;14.60;99.90;;;;;;5073939;28;19912;-57
2023/08/13 05:36:57;;;;;;;;;;;14.60;99.90;;;;;;5075017;28;19999;-57
2023/08/13 05:39:23;;;;;;;;;;;14.60;99.90;;;;;;5075121;28;19915;-57
2023/08/13 05:41:49;;;;;;;;;;;14.80;99.90;;;;;;5068088;28;19920;-57
2023/08/13 05:44:16;;;;;;;;;;;14.90;99.90;;;;;;5054893;28;20259;-57
2023/08/13 05:46:41;;;;;;;;;;;15.00;99.90;;;;;;5053600;28;19904;-57
2023/08/13 05:49:07;;;;;;;;;;;15.20;99.90;;;;;;5053590;28;19909;-57
2023/08/13 05:51:33;;;;;;;;;;;15.30;99.90;;;;;;5053667;28;19916;-57
2023/08/13 05:53:59;;;;;;;;;;;15.40;99.90;;;;;;5054891;28;19962;-57
2023/08/13 05:56:25;;;;;;;;;;;15.50;99.90;;;;;;5054841;28;19909;-57
2023/08/13 05:58:50;;;;;;;;;;;15.70;99.90;;;;;;5054063;28;20015;-57
2023/08/13 06:01:16;;;;;;;;;;;15.80;99.90;;;;;;5054554;28;19909;-57
2023/08/13 06:03:42;;;;;;;;;;;15.80;99.90;;;;;;5054665;28;19916;-57
2023/08/13 06:06:09;;;;;;;;;;;16.00;99.90;;;;;;5054795;28;19916;-57
2023/08/13 06:08:34;;;;;;;;;;;16.20;99.90;;;;;;5054645;28;19916;-57
2023/08/13 06:11:00;;;;;;;;;;;16.40;99.90;;;;;;5058606;28;20292;-57
2023/08/13 06:13:26;;;;;;;;;;;16.60;99.90;;;;;;5074615;28;19912;-57
2023/08/13 06:15:51;;;;;;;;;;;16.70;99.90;;;;;;5074561;28;19905;-57
2023/08/13 06:18:21;;;;;;;;;;;16.90;99.90;;;;;;5074807;28;20345;-57
2023/08/13 06:20:46;;;;;;;;;;;17.10;99.90;;;;;;5074480;28;19927;-57
2023/08/13 06:23:12;;;;;;;;;;;17.20;99.90;;;;;;5074459;28;20277;-57
2023/08/13 06:25:39;;;;;;;;;;;17.30;99.90;;;;;;5074486;28;19966;-57
2023/08/13 06:28:05;;;;;;;;;;;17.50;99.90;;;;;;5074423;28;20427;-57
2023/08/13 06:30:30;;;;;;;;;;;17.80;99.90;;;;;;5074380;28;19916;-57
2023/08/13 06:32:56;;;;;;;;;;;18.00;99.90;;;;;;5074523;28;20255;-57
2023/08/13 06:35:22;;;;;;;;;;;18.10;99.90;;;;;;5074542;28;20281;-57
2023/08/13 06:37:48;;;;;;;;;;;18.30;99.90;;;;;;5074343;28;19915;-57
2023/08/13 06:40:14;;;;;;;;;;;18.40;99.90;;;;;;5074415;28;19915;-57
2023/08/13 06:42:39;;;;;;;;;;;18.40;99.90;;;;;;5061700;28;19913;-58
2023/08/13 06:45:05;;;;;;;;;;;18.70;99.90;;;;;;5054154;28;20510;-57
2023/08/13 06:47:31;;;;;;;;;;;18.80;99.90;;;;;;5054324;28;19996;-57
2023/08/13 06:49:57;;;;;;;;;;;19.10;99.90;;;;;;5054237;28;20435;-57
2023/08/13 06:52:24;;;;;;;;;;;19.30;99.90;;;;;;5054125;28;19909;-57
2023/08/13 06:54:50;;;;;;;;;;;19.50;99.90;;;;;;5054339;28;19908;-57
2023/08/13 06:57:16;;;;;;;;;;;19.70;99.90;;;;;;5054536;28;19919;-57
2023/08/13 06:59:41;;;;;;;;;;;19.90;99.90;;;;;;5054074;28;19908;-57
2023/08/13 07:02:07;;;;;;;;;;;20.00;99.90;;;;;;5054098;28;19909;-57
2023/08/13 07:04:33;;;;;;;;;;;20.30;99.80;;;;;;5054172;28;19958;-58
2023/08/13 07:06:59;;;;;;;;;;;20.60;99.00;;;;;;5054098;28;19956;-57
2023/08/13 07:09:27;;;;;;;;;;;20.90;98.00;;;;;;5054612;28;19972;-58
2023/08/13 07:11:53;;;;;;;;;;;21.10;97.10;;;;;;5069003;28;19908;-57
2023/08/13 07:14:19;;;;;;;;;;;21.50;96.20;;;;;;5077596;28;19919;-58
2023/08/13 07:16:46;;;;;;;;;;;21.80;94.80;;;;;;5077580;28;20365;-58
2023/08/13 07:19:12;;;;;;;;;;;22.10;95.40;;;;;;5077578;28;20384;-58
2023/08/13 07:21:37;;;;;;;;;;;22.40;94.80;;;;;;5077420;28;19916;-58
2023/08/13 07:24:04;;;;;;;;;;;22.70;92.40;;;;;;5077450;28;19999;-58
2023/08/13 07:26:30;;;;;;;;;;;23.00;91.20;;;;;;5077251;28;19908;-58
2023/08/13 07:28:56;;;;;;;;;;;23.30;91.80;;;;;;5077441;28;20463;-58
2023/08/13 07:31:21;;;;;;;;;;;23.70;89.50;;;;;;5077697;28;20106;-57
2023/08/13 07:33:47;;;;;;;;;;;23.90;86.00;;;;;;5077561;28;19915;-58
2023/08/13 07:36:13;;;;;;;;;;;24.10;83.20;;;;;;5077206;28;19916;-58
2023/08/13 07:38:39;;;;;;;;;;;24.30;79.40;;;;;;5077613;28;20007;-57
2023/08/13 07:41:05;;;;;;;;;;;24.60;80.10;;;;;;5076135;28;20070;-58
2023/08/13 07:43:34;;;;;;;;;;;24.90;79.10;;;;;;5057408;28;19946;-58
2023/08/13 07:45:59;;;;;;;;;;;25.00;75.40;;;;;;5057094;28;19961;-58
2023/08/13 07:48:25;;;;;;;;;;;25.30;75.80;;;;;;5056894;28;20308;-58
2023/08/13 07:50:52;;;;;;;;;;;25.50;74.90;;;;;;5057272;28;19909;-58
2023/08/13 07:53:18;;;;;;;;;;;25.50;71.40;;;;;;5056960;28;19909;-58
2023/08/13 07:55:46;;;;;;;;;;;25.70;69.30;;;;;;5056647;28;20005;-58
2023/08/13 07:58:14;;;;;;;;;;;26.00;67.70;;;;;;5056808;28;19955;-58
2023/08/13 08:00:40;;;;;;;;;;;26.30;66.90;;;;;;5057219;28;19909;-58
2023/08/13 08:03:05;;;;;;;;;;;26.30;67.90;;;;;;5056710;28;20281;-58
2023/08/13 08:05:31;;;;;;;;;;;26.60;66.20;;;;;;5056807;28;19912;-58
2023/08/13 08:07:57;;;;;;;;;;;26.80;64.20;;;;;;5056638;28;19908;-58
2023/08/13 08:10:24;;;;;;;;;;;27.20;63.70;;;;;;5056491;28;20411;-58
2023/08/13 08:12:50;;;;;;;;;;;27.50;62.40;;;;;;5075659;28;20348;-58
2023/08/13 08:15:15;;;;;;;;;;;27.30;59.80;;;;;;5076536;28;19951;-58
2023/08/13 08:17:41;;;;;;;;;;;27.50;58.90;;;;;;5076422;28;20015;-58
2023/08/13 08:20:08;;;;;;;;;;;27.90;59.40;;;;;;5076169;28;19972;-58
2023/08/13 08:22:34;;;;;;;;;;;28.00;55.80;;;;;;5075649;28;19916;-58
2023/08/13 08:24:59;;;;;;;;;;;27.50;56.20;;;;;;5076118;28;19912;-58
2023/08/13 08:27:25;;;;;;;;;;;28.00;56.20;;;;;;5076352;28;19909;-58
2023/08/13 08:29:51;;;;;;;;;;;28.10;54.80;;;;;;5076369;28;19955;-58
2023/08/13 08:32:17;;;;;;;;;;;28.20;55.20;;;;;;5076188;28;19914;-58
2023/08/13 08:34:42;;;;;;;;;;;28.50;56.70;;;;;;5075999;28;19913;-58
2023/08/13 08:37:10;;;;;;;;;;;28.50;54.60;;;;;;5076170;28;19916;-58
2023/08/13 08:39:36;;;;;;;;;;;27.90;53.30;;;;;;5075911;28;19920;-58
2023/08/13 08:42:02;;;;;;;;;;;28.60;54.40;;;;;;5068506;28;19913;-58
2023/08/13 08:44:28;;;;;;;;;;;29.10;54.10;;;;;;5056009;28;19913;-58
2023/08/13 08:46:56;;;;;;;;;;;28.70;51.00;;;;;;5055881;28;20308;-58
2023/08/13 08:49:22;;;;;;;;;;;29.20;50.80;;;;;;5055937;28;19916;-58
2023/08/13 08:51:48;;;;;;;;;;;29.70;49.40;;;;;;5055907;28;20031;-58
2023/08/13 08:54:14;;;;;;;;;;;29.80;49.90;;;;;;5054386;28;19921;-58
2023/08/13 08:56:40;;;;;;;;;;;30.30;50.70;;;;;;5055792;28;19952;-58
2023/08/13 08:59:06;;;;;;;;;;;30.10;43.40;;;;;;5055898;28;19974;-58
2023/08/13 09:01:32;;;;;;;;;;;29.90;42.70;;;;;;5055441;28;19915;-58
2023/08/13 09:03:58;;;;;;;;;;;29.40;44.10;;;;;;5055592;28;19917;-58
2023/08/13 09:06:44;;;;;;;;;;;29.00;44.80;;;;;;5055878;28;19908;-58
2023/08/13 09:09:09;;;;;;;;;;;29.70;42.90;;;;;;5055397;28;19923;-58
2023/08/13 09:11:35;;;;;;;;;;;30.10;42.40;;;;;;5064373;28;19904;-58
2023/08/13 09:14:01;;;;;;;;;;;29.90;41.70;;;;;;5075245;28;19955;-58
2023/08/13 09:16:27;;;;;;;;;;;29.60;43.40;;;;;;5075303;28;19908;-58
2023/08/13 09:18:53;;;;;;;;;;;30.20;43.70;;;;;;5075270;28;20273;-58
2023/08/13 09:21:23;;;;;;;;;;;30.70;45.90;;;;;;5075156;28;20081;-58
2023/08/13 09:23:49;;;;;;;;;;;30.40;40.70;;;;;;5075245;28;19912;-58
2023/08/13 09:26:15;;;;;;;;;;;30.90;40.90;;;;;;5075330;28;19945;-58
2023/08/13 09:28:43;;;;;;;;;;;31.10;40.00;;;;;;5075213;28;19913;-58
2023/08/13 09:31:09;;;;;;;;;;;30.90;39.90;;;;;;5075118;28;19913;-58
2023/08/13 09:33:36;;;;;;;;;;;31.20;40.40;;;;;;5073809;28;19916;-58
2023/08/13 09:36:01;;;;;;;;;;;31.10;35.80;;;;;;5075074;28;19966;-58
2023/08/13 09:38:27;;;;;;;;;;;31.80;37.20;;;;;;5074883;28;19912;-58
2023/08/13 09:40:53;;;;;;;;;;;32.00;36.10;;;;;;5075065;28;19950;-58
2023/08/13 09:43:20;;;;;;;;;;;32.10;35.70;;;;;;5056814;28;19913;-58
2023/08/13 09:45:47;;;;;;;;;;;31.90;36.00;;;;;;5055015;28;19913;-58
2023/08/13 09:48:14;;;;;;;;;;;31.50;35.40;;;;;;5054912;28;19909;-58
2023/08/13 09:50:40;;;;;;;;;;;31.90;37.20;;;;;;5054676;28;19916;-58
2023/08/13 09:53:11;;;;;;;;;;;32.40;38.60;;;;;;5054836;28;19913;-58
2023/08/13 09:55:39;;;;;;;;;;;32.40;35.20;;;;;;5054774;28;19913;-58
2023/08/13 09:58:06;;;;;;;;;;;32.60;36.00;;;;;;5054889;28;19919;-58
2023/08/13 10:00:33;;;;;;;;;;;32.80;32.30;;;;;;5054535;28;20270;-58
2023/08/13 10:02:59;;;;;;;;;;;31.90;33.30;;;;;;5054547;28;19963;-58
2023/08/13 10:05:25;;;;;;;;;;;32.60;34.10;;;;;;5054715;28;19908;-58
2023/08/13 10:07:51;;;;;;;;;;;32.60;35.40;;;;;;5054778;28;19963;-58
2023/08/13 10:10:17;;;;;;;;;;;31.70;32.90;;;;;;5054625;28;20194;-58
2023/08/13 10:12:43;;;;;;;;;;;31.60;31.70;;;;;;5072793;28;19915;-58
2023/08/13 10:15:09;;;;;;;;;;;30.20;31.40;;;;;;5074826;28;19908;-58
2023/08/13 10:17:35;;;;;;;;;;;30.70;33.90;;;;;;5074581;28;19947;-58
2023/08/13 10:20:01;;;;;;;;;;;30.00;31.50;;;;;;5074501;28;20018;-58
2023/08/13 10:22:37;;;;;;;;;;;30.70;34.50;;;;;;5074707;28;19991;-58
2023/08/13 10:25:06;;;;;;;;;;;30.70;30.60;;;;;;5074380;28;19957;-58
2023/08/13 10:27:36;;;;;;;;;;;31.60;31.70;;;;;;5074569;28;19908;-58
2023/08/13 10:30:07;;;;;;;;;;;31.90;30.40;;;;;;5074467;28;19919;-58
2023/08/13 10:32:36;;;;;;;;;;;31.90;28.10;;;;;;5074746;28;19908;-58
2023/08/13 10:35:19;;;;;;;;;;;31.50;29.10;;;;;;5074460;28;20364;-58
2023/08/13 10:37:48;;;;;;;;;;;32.00;30.90;;;;;;5074362;28;19912;-58
2023/08/13 10:40:16;;;;;;;;;;;32.20;27.70;;;;;;5074358;28;19909;-58
2023/08/13 10:42:45;;;;;;;;;;;31.50;27.40;;;;;;5061378;28;19962;-58
2023/08/13 10:45:13;;;;;;;;;;;31.40;28.50;;;;;;5056184;28;19924;-58
2023/08/13 10:47:40;;;;;;;;;;;30.50;30.10;;;;;;5058397;28;19962;-56
2023/08/13 10:50:24;;;;;;;;;;;30.60;29.30;;;;;;5057859;28;19954;-56
2023/08/13 10:52:51;;;;;;;;;;;30.30;29.80;;;;;;5058069;28;19920;-56
2023/08/13 10:55:21;;;;;;;;;;;30.40;29.90;;;;;;5058150;28;19923;-56
2023/08/13 10:57:50;;;;;;;;;;;30.90;29.50;;;;;;5058083;28;19919;-56
2023/08/13 11:00:17;;;;;;;;;;;31.00;31.30;;;;;;5057781;28;19917;-56
2023/08/13 11:02:49;;;;;;;;;;;31.20;30.00;;;;;;5057838;28;20453;-56
2023/08/13 11:05:15;;;;;;;;;;;31.00;29.30;;;;;;5057736;28;19980;-56
2023/08/13 11:07:42;;;;;;;;;;;30.80;30.00;;;;;;5057800;28;20005;-56
2023/08/13 11:10:08;;;;;;;;;;;30.00;29.90;;;;;;5057792;28;19909;-56
2023/08/13 11:12:34;;;;;;;;;;;30.50;29.40;;;;;;5074594;28;20243;-56
2023/08/13 11:15:02;;;;;;;;;;;29.90;29.10;;;;;;5077550;28;20274;-56
2023/08/13 11:17:28;;;;;;;;;;;30.60;30.50;;;;;;5077665;28;20389;-56
2023/08/13 11:19:57;;;;;;;;;;;30.50;28.80;;;;;;5077333;28;19912;-56
2023/08/13 11:22:23;;;;;;;;;;;29.70;29.10;;;;;;5077548;28;19915;-56
2023/08/13 11:24:49;;;;;;;;;;;30.00;31.10;;;;;;5077359;28;19920;-56
2023/08/13 11:27:15;;;;;;;;;;;30.70;28.60;;;;;;5077371;28;19908;-56
2023/08/13 11:29:41;;;;;;;;;;;31.70;29.70;;;;;;5077386;28;19916;-56
2023/08/13 11:32:07;;;;;;;;;;;31.80;27.60;;;;;;5077369;28;20286;-56
2023/08/13 11:34:33;;;;;;;;;;;32.00;27.90;;;;;;5077218;28;19915;-56
2023/08/13 11:36:59;;;;;;;;;;;32.20;26.10;;;;;;5077069;28;19915;-56
2023/08/13 11:39:25;;;;;;;;;;;32.60;27.80;;;;;;5077210;28;19915;-56
2023/08/13 11:41:51;;;;;;;;;;;33.30;27.60;;;;;;5071270;28;19913;-56
2023/08/13 11:44:18;;;;;;;;;;;31.30;26.20;;;;;;5056871;28;19970;-56
2023/08/13 11:46:54;;;;;;;;;;;32.20;28.70;;;;;;5057442;28;19916;-56
2023/08/13 11:49:20;;;;;;;;;;;32.40;25.30;;;;;;5057030;28;20445;-56
2023/08/13 11:51:46;;;;;;;;;;;33.00;25.90;;;;;;5057005;28;19998;-56
2023/08/13 11:54:12;;;;;;;;;;;32.80;25.80;;;;;;5056925;28;20002;-56
2023/08/13 11:56:40;;;;;;;;;;;33.00;27.80;;;;;;5055922;28;20293;-56
2023/08/13 11:59:06;;;;;;;;;;;33.70;25.80;;;;;;5057088;28;19908;-56
2023/08/13 12:01:36;;;;;;;;;;;34.20;26.50;;;;;;5055714;28;19909;-56
2023/08/13 12:04:03;;;;;;;;;;;34.50;26.00;;;;;;5056664;28;20286;-56
2023/08/13 12:06:28;;;;;;;;;;;34.20;25.30;;;;;;5056777;28;20337;-56
2023/08/13 12:08:55;;;;;;;;;;;32.50;24.90;;;;;;5056748;28;19908;-56
2023/08/13 12:11:21;;;;;;;;;;;32.80;26.00;;;;;;5063471;28;19948;-57
2023/08/13 12:13:47;;;;;;;;;;;33.60;28.30;;;;;;5076636;28;19951;-56
2023/08/13 12:16:13;;;;;;;;;;;34.20;26.60;;;;;;5076450;28;19965;-56
2023/08/13 12:18:39;;;;;;;;;;;34.30;24.00;;;;;;5076616;28;20418;-56
2023/08/13 12:21:05;;;;;;;;;;;32.40;25.40;;;;;;5076394;28;19999;-56
2023/08/13 12:23:31;;;;;;;;;;;32.10;26.10;;;;;;5076348;28;20495;-56
2023/08/13 12:25:57;;;;;;;;;;;31.60;26.00;;;;;;5076045;28;19913;-56
2023/08/13 12:28:22;;;;;;;;;;;30.70;27.90;;;;;;5076372;28;19920;-56
2023/08/13 12:30:48;;;;;;;;;;;30.10;28.00;;;;;;5076126;28;19908;-56
2023/08/13 12:33:14;;;;;;;;;;;30.10;29.20;;;;;;5076259;28;19912;-56
2023/08/13 12:35:40;;;;;;;;;;;30.90;29.40;;;;;;5076152;28;19916;-56
2023/08/13 12:38:06;;;;;;;;;;;31.60;27.80;;;;;;5075845;28;19966;-56
2023/08/13 12:40:31;;;;;;;;;;;31.30;28.20;;;;;;5075894;28;19915;-56
2023/08/13 12:42:57;;;;;;;;;;;31.60;28.70;;;;;;5060985;28;19961;-56
2023/08/13 12:45:23;;;;;;;;;;;30.80;28.60;;;;;;5055957;28;19913;-56
2023/08/13 12:47:49;;;;;;;;;;;31.40;27.90;;;;;;5056106;28;19995;-56
2023/08/13 12:50:14;;;;;;;;;;;31.10;27.10;;;;;;5056042;28;19961;-56
2023/08/13 12:52:40;;;;;;;;;;;31.60;27.60;;;;;;5055958;28;19916;-56
2023/08/13 12:55:06;;;;;;;;;;;31.90;28.40;;;;;;5055869;28;20281;-56
2023/08/13 12:57:32;;;;;;;;;;;32.50;26.80;;;;;;5055758;28;20282;-56
2023/08/13 12:59:57;;;;;;;;;;;31.80;26.30;;;;;;5055672;28;19905;-56
2023/08/13 13:02:26;;;;;;;;;;;32.50;25.80;;;;;;5055563;28;19916;-56
2023/08/13 13:04:52;;;;;;;;;;;31.10;26.20;;;;;;5055701;28;19956;-56
2023/08/13 13:07:19;;;;;;;;;;;31.70;27.00;;;;;;5055362;28;19913;-56
2023/08/13 13:09:46;;;;;;;;;;;31.50;26.90;;;;;;5055521;28;20394;-56
2023/08/13 13:12:12;;;;;;;;;;;32.30;27.70;;;;;;5069385;28;19919;-56
2023/08/13 13:14:38;;;;;;;;;;;32.60;26.20;;;;;;5075370;28;19905;-57
2023/08/13 13:17:04;;;;;;;;;;;31.80;27.00;;;;;;5075274;28;19908;-57
2023/08/13 13:19:29;;;;;;;;;;;31.80;27.30;;;;;;5075212;28;19912;-58
2023/08/13 13:21:55;;;;;;;;;;;32.00;26.90;;;;;;5075358;28;20089;-57
2023/08/13 13:24:21;;;;;;;;;;;30.80;26.20;;;;;;5075020;28;19958;-57
2023/08/13 13:26:48;;;;;;;;;;;31.30;27.60;;;;;;5075329;28;20041;-57
2023/08/13 13:29:13;;;;;;;;;;;31.10;25.90;;;;;;5075150;28;19961;-57
2023/08/13 13:31:39;;;;;;;;;;;31.30;26.50;;;;;;5075179;28;20316;-57
2023/08/13 13:34:05;;;;;;;;;;;30.80;27.60;;;;;;5075233;28;20280;-57
2023/08/13 13:36:31;;;;;;;;;;;31.40;26.90;;;;;;5075314;28;19912;-57
2023/08/13 13:38:56;;;;;;;;;;;31.50;27.00;;;;;;5075057;28;20371;-57
2023/08/13 13:41:22;;;;;;;;;;;32.10;27.10;;;;;;5073158;28;20002;-57
2023/08/13 13:43:48;;;;;;;;;;;31.20;27.00;;;;;;5055015;28;19919;-57
2023/08/13 13:46:14;;;;;;;;;;;31.00;27.30;;;;;;5054879;28;20457;-57
2023/08/13 13:48:39;;;;;;;;;;;31.30;26.90;;;;;;5054857;28;20011;-57
2023/08/13 13:51:05;;;;;;;;;;;31.70;27.30;;;;;;5054819;28;19916;-57
2023/08/13 13:53:31;;;;;;;;;;;31.10;27.80;;;;;;5054840;28;19963;-57
2023/08/13 13:55:57;;;;;;;;;;;30.50;28.20;;;;;;5054800;28;19912;-57
2023/08/13 13:58:23;;;;;;;;;;;31.20;28.60;;;;;;5054788;28;20282;-57
2023/08/13 14:00:49;;;;;;;;;;;31.60;29.30;;;;;;5054719;28;19912;-57
2023/08/13 14:03:15;;;;;;;;;;;31.20;28.00;;;;;;5054580;28;19909;-57
2023/08/13 14:05:41;;;;;;;;;;;31.10;28.70;;;;;;5054738;28;19916;-57
2023/08/13 14:08:07;;;;;;;;;;;31.10;28.40;;;;;;5054670;28;19913;-57
2023/08/13 14:10:32;;;;;;;;;;;30.80;28.00;;;;;;5055092;28;19909;-57
2023/08/13 14:12:58;;;;;;;;;;;30.40;29.20;;;;;;5074519;28;19912;-57